createdAt,value
2023-02-22T00:01:51.113Z,18.25
2023-02-22T00:04:21.412Z,16.83
2023-02-22T00:06:49.760Z,17.67
2023-02-22T00:09:21.417Z,17.67
2023-02-22T00:11:49.002Z,18.15
2023-02-22T00:14:20.289Z,17.38
2023-02-22T00:16:47.062Z,18.58
2023-02-22T00:19:13.685Z,17.10
2023-02-22T00:21:40.267Z,16.65
2023-02-22T00:24:23.333Z,16.75
2023-02-22T00:26:57.985Z,16.00
2023-02-22T00:29:25.599Z,17.45
2023-02-22T00:31:57.067Z,19.25
2023-02-22T00:34:24.280Z,17.50
2023-02-22T00:36:51.203Z,17.90
2023-02-22T00:39:20.590Z,17.85
2023-02-22T00:41:47.385Z,19.38
2023-02-22T00:44:14.668Z,18.77
2023-02-22T00:46:41.271Z,18.48
2023-02-22T00:49:10.076Z,17.55
2023-02-22T00:51:36.815Z,16.55
2023-02-22T00:54:03.436Z,16.33
2023-02-22T00:56:30.070Z,17.40
2023-02-22T00:58:56.593Z,16.48
2023-02-22T01:01:24.295Z,16.05
2023-02-22T01:03:51.344Z,16.67
2023-02-22T01:06:20.443Z,17.23
2023-02-22T01:08:50.056Z,16.60
2023-02-22T01:11:17.536Z,17.08
2023-02-22T01:13:47.332Z,16.60
2023-02-22T01:16:14.452Z,16.67
2023-02-22T01:18:44.071Z,16.80
2023-02-22T01:21:10.685Z,17.08
2023-02-22T01:23:39.693Z,16.40
2023-02-22T01:26:06.328Z,16.13
2023-02-22T01:28:36.180Z,17.35
2023-02-22T01:31:03.264Z,17.25
2023-02-22T01:33:30.243Z,17.65
2023-02-22T01:35:56.858Z,16.42
2023-02-22T01:38:23.414Z,17.88
2023-02-22T01:40:51.514Z,16.52
2023-02-22T01:43:29.667Z,18.35
2023-02-22T01:46:25.725Z,17.83
2023-02-22T01:48:57.376Z,17.90
2023-02-22T01:51:25.684Z,18.73
2023-02-22T01:54:27.760Z,18.42
2023-02-22T01:57:07.246Z,19.15
2023-02-22T01:59:43.107Z,18.33
2023-02-22T02:02:10.143Z,18.80
2023-02-22T02:04:37.190Z,21.10
2023-02-22T02:07:10.193Z,18.73
2023-02-22T02:09:43.957Z,19.58
2023-02-22T02:12:15.224Z,19.85
2023-02-22T02:14:43.899Z,18.13
2023-02-22T02:17:15.710Z,18.42
2023-02-22T02:19:54.305Z,20.10
2023-02-22T02:22:42.881Z,18.60
2023-02-22T02:25:40.723Z,18.25
2023-02-22T02:28:16.319Z,18.50
2023-02-22T02:31:22.512Z,18.52
2023-02-22T02:34:05.095Z,18.80
2023-02-22T02:36:40.315Z,19.83
2023-02-22T02:39:31.030Z,19.00
2023-02-22T02:42:00.273Z,18.92
2023-02-22T02:44:37.981Z,19.70
2023-02-22T02:47:21.906Z,20.80
2023-02-22T02:49:55.572Z,19.52
2023-02-22T02:52:27.226Z,20.77
2023-02-22T02:54:55.867Z,20.88
2023-02-22T02:57:22.546Z,20.42
2023-02-22T02:59:51.612Z,21.38
2023-02-22T03:02:41.194Z,19.67
2023-02-22T03:05:19.594Z,20.95
2023-02-22T03:08:10.058Z,20.27
2023-02-22T03:10:50.429Z,21.48
2023-02-22T03:13:40.289Z,21.20
2023-02-22T03:16:12.861Z,20.92
2023-02-22T03:18:45.317Z,21.38
2023-02-22T03:21:39.614Z,21.23
2023-02-22T03:24:15.268Z,21.52
2023-02-22T03:26:47.630Z,20.67
2023-02-22T03:29:17.938Z,22.33
2023-02-22T03:32:01.567Z,23.10
2023-02-22T03:34:56.754Z,22.73
2023-02-22T03:37:34.161Z,23.15
2023-02-22T03:40:14.002Z,22.60
2023-02-22T03:42:51.744Z,22.10
2023-02-22T03:45:21.395Z,23.05
2023-02-22T03:47:53.139Z,22.77
2023-02-22T03:50:35.560Z,21.85
2023-02-22T03:53:02.948Z,22.13
2023-02-22T03:55:31.522Z,21.92
2023-02-22T03:58:00.285Z,21.80
2023-02-22T04:00:30.662Z,21.40
2023-02-22T04:03:00.026Z,22.45
2023-02-22T04:05:26.855Z,21.55
2023-02-22T04:07:54.854Z,20.63
2023-02-22T04:10:22.461Z,22.45
2023-02-22T04:12:50.786Z,22.73
2023-02-22T04:15:23.987Z,23.10
2023-02-22T04:17:52.310Z,21.98
2023-02-22T04:20:25.711Z,22.92
2023-02-22T04:22:53.566Z,21.38
2023-02-22T04:25:21.235Z,21.77
2023-02-22T04:27:47.855Z,21.42
2023-02-22T04:30:19.968Z,22.42
2023-02-22T04:32:46.739Z,21.65
2023-02-22T04:35:15.959Z,23.35
2023-02-22T04:37:44.699Z,20.48
2023-02-22T04:40:11.603Z,20.25
2023-02-22T04:42:40.705Z,22.15
2023-02-22T04:45:08.981Z,20.88
2023-02-22T04:47:39.699Z,20.35
2023-02-22T04:50:11.556Z,21.15
2023-02-22T04:52:43.364Z,21.42
2023-02-22T04:55:10.132Z,24.15
2023-02-22T04:57:36.741Z,20.77
2023-02-22T05:00:05.798Z,21.98
2023-02-22T05:02:32.608Z,21.92
2023-02-22T05:04:59.163Z,21.45
2023-02-22T05:07:25.806Z,21.30
2023-02-22T05:09:52.506Z,21.90
2023-02-22T05:12:19.164Z,20.27
2023-02-22T05:14:45.734Z,20.02
2023-02-22T05:17:14.937Z,18.50
2023-02-22T05:19:47.286Z,18.50
2023-02-22T05:22:16.119Z,17.58
2023-02-22T05:24:43.899Z,17.00
2023-02-22T05:27:10.501Z,17.95
2023-02-22T05:29:38.705Z,16.17
2023-02-22T05:32:08.209Z,15.52
2023-02-22T05:34:34.940Z,17.13
2023-02-22T05:37:02.036Z,16.45
2023-02-22T05:39:28.606Z,14.70
2023-02-22T05:41:55.193Z,16.00
2023-02-22T05:44:21.761Z,14.95
2023-02-22T05:46:48.439Z,15.57
2023-02-22T05:49:15.784Z,16.13
2023-02-22T05:51:42.392Z,15.45
2023-02-22T05:54:09.028Z,15.45
2023-02-22T05:56:36.578Z,15.50
2023-02-22T05:59:03.229Z,15.98
2023-02-22T06:01:32.230Z,16.13
2023-02-22T06:03:58.834Z,15.30
2023-02-22T06:06:25.460Z,15.80
2023-02-22T06:08:52.108Z,16.35
2023-02-22T06:11:21.223Z,15.57
2023-02-22T06:13:52.827Z,16.05
2023-02-22T06:16:22.616Z,15.80
2023-02-22T06:18:51.585Z,16.40
2023-02-22T06:21:18.433Z,17.15
2023-02-22T06:23:47.487Z,16.25
2023-02-22T06:26:17.419Z,16.55
2023-02-22T06:28:44.049Z,15.68
2023-02-22T06:31:12.996Z,17.92
2023-02-22T06:33:44.103Z,15.90
2023-02-22T06:36:11.509Z,16.17
2023-02-22T06:38:38.277Z,16.02
2023-02-22T06:41:05.012Z,16.75
2023-02-22T06:43:36.070Z,16.17
2023-02-22T06:46:05.044Z,16.98
2023-02-22T06:48:34.623Z,17.20
2023-02-22T06:51:01.662Z,18.10
2023-02-22T06:53:28.203Z,17.95
2023-02-22T06:55:57.097Z,18.48
2023-02-22T06:58:23.712Z,19.00
2023-02-22T07:00:50.325Z,18.45
2023-02-22T07:03:17.580Z,18.15
2023-02-22T07:05:46.364Z,19.02
2023-02-22T07:08:15.323Z,18.60
2023-02-22T07:10:41.980Z,19.17
2023-02-22T07:13:09.349Z,18.48
2023-02-22T07:15:36.486Z,19.38
2023-02-22T07:18:05.768Z,19.50
2023-02-22T07:20:32.764Z,17.15
2023-02-22T07:23:00.051Z,19.65
2023-02-22T07:25:27.444Z,18.40
2023-02-22T07:27:54.115Z,18.90
2023-02-22T07:30:28.049Z,19.73
2023-02-22T07:32:55.491Z,18.98
2023-02-22T07:35:29.569Z,19.65
2023-02-22T07:37:56.494Z,20.23
2023-02-22T07:40:24.419Z,20.23
2023-02-22T07:42:56.852Z,18.38
2023-02-22T07:45:26.161Z,18.45
2023-02-22T07:47:53.086Z,19.27
2023-02-22T07:50:20.763Z,18.20
2023-02-22T07:52:52.149Z,19.35
2023-02-22T07:55:26.020Z,19.15
2023-02-22T07:57:54.601Z,20.45
2023-02-22T08:00:31.856Z,19.50
2023-02-22T08:03:05.667Z,18.67
2023-02-22T08:05:36.368Z,19.10
2023-02-22T08:08:06.827Z,19.13
2023-02-22T08:10:37.637Z,18.92
2023-02-22T08:13:05.457Z,18.08
2023-02-22T08:15:35.647Z,18.83
2023-02-22T08:18:04.246Z,19.33
2023-02-22T08:20:31.272Z,19.35
2023-02-22T08:23:00.740Z,19.23
2023-02-22T08:25:29.526Z,19.30
2023-02-22T08:28:01.681Z,19.35
2023-02-22T08:30:32.745Z,19.17
2023-02-22T08:33:05.344Z,19.52
2023-02-22T08:35:33.522Z,19.33
2023-02-22T08:38:05.698Z,18.70
2023-02-22T08:40:35.168Z,19.75
2023-02-22T08:43:01.917Z,18.85
2023-02-22T08:45:29.140Z,18.35
2023-02-22T08:47:58.817Z,19.63
2023-02-22T08:50:30.835Z,18.38
2023-02-22T08:53:02.679Z,18.25
2023-02-22T08:55:33.549Z,18.98
2023-02-22T08:58:03.063Z,18.02
2023-02-22T09:00:34.072Z,17.70
2023-02-22T09:03:02.567Z,19.20
2023-02-22T09:05:31.331Z,17.67
2023-02-22T09:07:58.399Z,18.30
2023-02-22T09:10:27.613Z,18.35
2023-02-22T09:12:55.608Z,17.90
2023-02-22T09:15:23.164Z,18.50
2023-02-22T09:17:50.167Z,18.55
2023-02-22T09:20:22.312Z,18.73
2023-02-22T09:22:49.661Z,17.88
2023-02-22T09:25:17.888Z,20.25
2023-02-22T09:27:48.733Z,19.95
2023-02-22T09:30:32.338Z,19.13
2023-02-22T09:33:03.176Z,19.50
2023-02-22T09:35:30.178Z,19.95
2023-02-22T09:38:00.305Z,19.60
2023-02-22T09:40:30.330Z,19.58
2023-02-22T09:43:02.976Z,19.65
2023-02-22T09:45:48.232Z,19.55
2023-02-22T09:48:21.996Z,18.85
2023-02-22T09:50:51.450Z,18.38
2023-02-22T09:53:18.262Z,18.20
2023-02-22T09:55:51.568Z,19.08
2023-02-22T09:58:25.847Z,18.40
2023-02-22T10:01:06.950Z,17.83
2023-02-22T10:03:49.247Z,17.65
2023-02-22T10:06:21.252Z,16.98
2023-02-22T10:08:50.115Z,17.60
2023-02-22T10:11:31.267Z,17.98
2023-02-22T10:14:22.608Z,16.85
2023-02-22T10:16:59.473Z,16.35
2023-02-22T10:19:44.436Z,16.38
2023-02-22T10:22:43.421Z,17.50
2023-02-22T10:25:12.991Z,16.92
2023-02-22T10:27:48.062Z,16.70
2023-02-22T10:30:35.197Z,16.85
2023-02-22T10:33:44.811Z,17.20
2023-02-22T10:36:23.746Z,17.30
2023-02-22T10:39:00.655Z,17.10
2023-02-22T10:41:33.090Z,15.82
2023-02-22T10:44:01.470Z,15.93
2023-02-22T10:46:29.553Z,15.60
2023-02-22T10:49:04.346Z,15.95
2023-02-22T10:51:33.225Z,15.90
2023-02-22T10:54:14.715Z,14.13
2023-02-22T10:56:53.022Z,15.60
2023-02-22T10:59:34.680Z,13.65
2023-02-22T11:02:08.529Z,14.50
2023-02-22T11:04:54.578Z,13.98
2023-02-22T11:07:36.693Z,14.13
2023-02-22T11:10:09.576Z,13.07
2023-02-22T11:12:42.431Z,13.98
2023-02-22T11:15:18.861Z,13.80
2023-02-22T11:17:50.857Z,12.73
2023-02-22T11:20:26.822Z,13.13
2023-02-22T11:22:54.711Z,13.43
2023-02-22T11:25:25.450Z,13.35
2023-02-22T11:27:55.955Z,14.30
2023-02-22T11:30:25.284Z,13.55
2023-02-22T11:32:54.712Z,12.63
2023-02-22T11:35:49.815Z,12.73
2023-02-22T11:38:16.332Z,12.88
2023-02-22T11:40:44.427Z,13.02
2023-02-22T11:43:20.438Z,12.57
2023-02-22T11:46:06.094Z,11.77
2023-02-22T11:48:36.844Z,12.10
2023-02-22T11:51:31.004Z,11.85
2023-02-22T11:54:32.478Z,11.65
2023-02-22T11:57:02.048Z,11.90
2023-02-22T12:00:15.731Z,10.60
2023-02-22T12:03:23.949Z,11.23
2023-02-22T12:05:59.809Z,10.75
2023-02-22T12:08:32.981Z,10.20
2023-02-22T12:11:40.662Z,10.63
2023-02-22T12:14:42.101Z,11.00
2023-02-22T12:17:19.197Z,10.27
2023-02-22T12:19:58.829Z,11.35
2023-02-22T12:22:27.238Z,10.57
2023-02-22T12:25:09.786Z,11.02
2023-02-22T12:27:49.352Z,10.52
2023-02-22T12:30:28.918Z,11.25
2023-02-22T12:33:00.100Z,11.23
2023-02-22T12:35:27.647Z,11.25
2023-02-22T12:37:56.878Z,11.27
2023-02-22T12:40:47.427Z,12.00
2023-02-22T12:43:22.472Z,11.15
2023-02-22T12:45:55.067Z,10.85
2023-02-22T12:48:49.297Z,11.15
2023-02-22T12:51:41.277Z,11.10
2023-02-22T12:54:16.858Z,11.35
2023-02-22T12:56:49.079Z,11.15
2023-02-22T12:59:22.642Z,11.88
2023-02-22T13:01:58.558Z,11.45
2023-02-22T13:04:31.812Z,12.30
2023-02-22T13:07:23.154Z,11.77
2023-02-22T13:10:23.451Z,11.23
2023-02-22T13:12:57.696Z,11.25
2023-02-22T13:16:01.333Z,11.88
2023-02-22T13:18:33.763Z,11.73
2023-02-22T13:21:13.283Z,12.38
2023-02-22T13:24:25.137Z,12.00
2023-02-22T13:26:59.382Z,11.07
2023-02-22T13:29:34.757Z,12.07
2023-02-22T13:32:13.424Z,11.98
2023-02-22T13:34:46.083Z,12.32
2023-02-22T13:37:39.334Z,12.93
2023-02-22T13:40:21.133Z,13.55
2023-02-22T13:43:06.579Z,13.35
2023-02-22T13:46:01.073Z,14.30
2023-02-22T13:49:05.198Z,13.45
2023-02-22T13:51:57.121Z,14.70
2023-02-22T13:54:28.835Z,13.45
2023-02-22T13:56:57.471Z,13.77
2023-02-22T13:59:37.336Z,14.30
2023-02-22T14:02:07.971Z,13.93
2023-02-22T14:04:38.396Z,13.82
2023-02-22T14:07:29.890Z,15.15
2023-02-22T14:09:59.190Z,15.05
2023-02-22T14:12:33.564Z,14.68
2023-02-22T14:15:28.729Z,15.75
2023-02-22T14:18:03.862Z,14.95
2023-02-22T14:20:36.701Z,15.25
2023-02-22T14:23:28.297Z,15.52
2023-02-22T14:25:55.980Z,14.85
2023-02-22T14:28:59.254Z,15.73
2023-02-22T14:31:36.898Z,15.85
2023-02-22T14:34:20.213Z,15.45
2023-02-22T14:36:57.799Z,15.75
2023-02-22T14:40:19.088Z,15.73
2023-02-22T14:42:50.939Z,16.73
2023-02-22T14:45:27.380Z,16.88
2023-02-22T14:48:11.667Z,15.73
2023-02-22T14:50:41.529Z,15.48
2023-02-22T14:53:15.700Z,15.68
2023-02-22T14:55:50.926Z,15.40
2023-02-22T14:58:27.887Z,15.15
2023-02-22T15:00:56.838Z,16.60
2023-02-22T15:03:37.505Z,15.07
2023-02-22T15:06:14.923Z,15.63
2023-02-22T15:08:49.412Z,16.17
2023-02-22T15:11:25.245Z,15.70
2023-02-22T15:13:55.136Z,15.38
2023-02-22T15:16:29.265Z,16.00
2023-02-22T15:18:59.787Z,16.40
2023-02-22T15:21:28.810Z,16.38
2023-02-22T15:23:59.414Z,15.77
2023-02-22T15:26:37.289Z,16.50
2023-02-22T15:29:15.194Z,16.08
2023-02-22T15:31:48.320Z,15.25
2023-02-22T15:34:15.432Z,16.20
2023-02-22T15:36:43.476Z,15.48
2023-02-22T15:39:29.559Z,16.45
2023-02-22T15:42:08.102Z,16.35
2023-02-22T15:44:45.764Z,17.58
2023-02-22T15:47:23.804Z,17.27
2023-02-22T15:50:21.108Z,16.95
2023-02-22T15:53:00.295Z,18.45
2023-02-22T15:55:36.297Z,18.10
2023-02-22T15:58:19.754Z,18.65
2023-02-22T16:01:11.219Z,18.23
2023-02-22T16:03:45.768Z,17.85
2023-02-22T16:06:29.651Z,17.85
2023-02-22T16:09:00.070Z,19.50
2023-02-22T16:11:40.350Z,18.48
2023-02-22T16:14:26.791Z,19.10
2023-02-22T16:17:24.805Z,19.17
2023-02-22T16:19:54.276Z,18.40
2023-02-22T16:22:28.326Z,18.35
2023-02-22T16:25:16.309Z,18.13
2023-02-22T16:27:47.532Z,18.83
2023-02-22T16:30:32.426Z,19.33
2023-02-22T16:33:00.728Z,18.00
2023-02-22T16:35:32.643Z,19.45
2023-02-22T16:38:17.094Z,19.75
2023-02-22T16:40:54.890Z,19.67
2023-02-22T16:43:29.862Z,18.85
2023-02-22T16:45:58.727Z,19.75
2023-02-22T16:48:30.346Z,19.58
2023-02-22T16:51:01.035Z,18.70
2023-02-22T16:53:31.163Z,19.55
2023-02-22T16:56:02.613Z,20.60
2023-02-22T16:58:33.857Z,20.02
2023-02-22T17:01:03.238Z,20.60
2023-02-22T17:03:29.900Z,20.35
2023-02-22T17:05:56.648Z,19.95
2023-02-22T17:08:24.109Z,20.45
2023-02-22T17:10:51.928Z,21.38
2023-02-22T17:13:29.311Z,21.17
2023-02-22T17:15:57.046Z,21.38
2023-02-22T17:18:28.508Z,22.20
2023-02-22T17:20:55.765Z,22.70
2023-02-22T17:23:27.556Z,23.20
2023-02-22T17:26:00.578Z,22.77
2023-02-22T17:28:27.583Z,23.17
2023-02-22T17:30:56.082Z,22.73
2023-02-22T17:33:30.430Z,23.25
2023-02-22T17:35:58.667Z,22.77
2023-02-22T17:38:30.024Z,24.08
2023-02-22T17:41:01.502Z,24.60
2023-02-22T17:43:28.760Z,24.48
2023-02-22T17:45:56.336Z,24.65
2023-02-22T17:48:24.294Z,24.48
2023-02-22T17:50:56.091Z,26.17
2023-02-22T17:53:25.579Z,26.92
2023-02-22T17:55:52.659Z,26.85
2023-02-22T17:58:19.287Z,26.30
2023-02-22T18:00:48.937Z,28.05
2023-02-22T18:03:25.305Z,28.20
2023-02-22T18:05:56.242Z,31.38
2023-02-22T18:08:24.445Z,30.60
2023-02-22T18:10:56.292Z,31.17
2023-02-22T18:13:25.386Z,32.47
2023-02-22T18:15:52.433Z,32.47
2023-02-22T18:18:19.870Z,34.13
2023-02-22T18:20:51.528Z,33.80
2023-02-22T18:23:20.763Z,36.78
2023-02-22T18:26:03.838Z,39.42
2023-02-22T18:28:38.372Z,40.53
2023-02-22T18:31:14.700Z,40.00
2023-02-22T18:33:43.414Z,43.10
2023-02-22T18:36:14.252Z,43.58
2023-02-22T18:38:43.182Z,45.47
2023-02-22T18:41:12.924Z,44.55
2023-02-22T18:43:40.223Z,43.72
2023-02-22T18:46:12.347Z,44.33
2023-02-22T18:48:39.864Z,44.70
2023-02-22T18:51:10.539Z,45.20
2023-02-22T18:53:38.662Z,45.08
2023-02-22T18:56:11.502Z,45.83
2023-02-22T18:58:38.944Z,45.22
2023-02-22T19:01:06.967Z,43.70
2023-02-22T19:03:38.246Z,45.08
2023-02-22T19:06:10.573Z,43.58
2023-02-22T19:08:42.523Z,41.70
2023-02-22T19:11:17.926Z,41.40
2023-02-22T19:13:49.047Z,41.22
2023-02-22T19:16:20.249Z,40.20
2023-02-22T19:18:48.986Z,40.47
2023-02-22T19:21:16.349Z,39.40
2023-02-22T19:23:46.050Z,40.03
2023-02-22T19:26:31.268Z,41.55
2023-02-22T19:29:00.956Z,39.65
2023-02-22T19:31:31.680Z,42.15
2023-02-22T19:34:08.689Z,40.05
2023-02-22T19:36:38.620Z,38.60
2023-02-22T19:39:05.271Z,39.78
2023-02-22T19:41:31.843Z,41.03
2023-02-22T19:44:01.502Z,39.97
2023-02-22T19:46:31.515Z,39.42
2023-02-22T19:49:03.472Z,38.60
2023-02-22T19:51:31.846Z,41.80
2023-02-22T19:54:19.637Z,39.08
2023-02-22T19:56:50.954Z,39.00
2023-02-22T19:59:23.243Z,39.47
2023-02-22T20:01:53.737Z,37.72
2023-02-22T20:04:23.307Z,37.78
2023-02-22T20:06:54.620Z,37.03
2023-02-22T20:09:30.054Z,38.55
2023-02-22T20:11:57.060Z,38.05
2023-02-22T20:14:28.554Z,36.83
2023-02-22T20:16:56.201Z,38.50
2023-02-22T20:19:23.005Z,36.63
2023-02-22T20:21:52.382Z,35.85
2023-02-22T20:24:19.282Z,38.58
2023-02-22T20:26:47.181Z,37.45
2023-02-22T20:29:17.039Z,38.38
2023-02-22T20:31:44.566Z,36.63
2023-02-22T20:34:11.693Z,36.35
2023-02-22T20:36:40.265Z,35.90
2023-02-22T20:39:15.042Z,36.00
2023-02-22T20:41:43.870Z,35.60
2023-02-22T20:44:18.501Z,36.00
2023-02-22T20:46:46.568Z,46.50
2023-02-22T20:49:17.167Z,43.67
2023-02-22T20:51:45.638Z,41.42
2023-02-22T20:54:12.963Z,38.53
2023-02-22T20:56:44.669Z,36.42
2023-02-22T20:59:17.451Z,37.00
2023-02-22T21:01:44.144Z,35.40
2023-02-22T21:04:13.716Z,34.72
2023-02-22T21:06:40.932Z,36.00
2023-02-22T21:09:13.770Z,35.20
2023-02-22T21:11:40.513Z,38.00
2023-02-22T21:14:10.295Z,37.90
2023-02-22T21:16:37.509Z,37.50
2023-02-22T21:19:06.546Z,37.50
2023-02-22T21:21:36.116Z,35.70
2023-02-22T21:24:02.795Z,35.20
2023-02-22T21:26:34.358Z,34.08
2023-02-22T21:29:06.068Z,35.85
2023-02-22T21:31:34.159Z,36.25
2023-02-22T21:34:01.912Z,36.67
2023-02-22T21:36:29.040Z,35.00
2023-02-22T21:39:08.409Z,36.40
2023-02-22T21:41:39.178Z,34.53
2023-02-22T21:44:07.368Z,34.20
2023-02-22T21:46:33.910Z,33.90
2023-02-22T21:49:00.492Z,35.42
2023-02-22T21:51:31.797Z,39.83
2023-02-22T21:54:03.346Z,36.03
2023-02-22T21:56:32.464Z,39.13
2023-02-22T21:59:23.834Z,40.80
2023-02-22T22:01:55.724Z,40.80
2023-02-22T22:04:31.479Z,40.65
2023-02-22T22:07:00.687Z,39.58
2023-02-22T22:09:32.701Z,40.83
2023-02-22T22:12:03.080Z,41.55
2023-02-22T22:14:29.654Z,40.67
2023-02-22T22:16:59.721Z,40.53
2023-02-22T22:19:29.336Z,39.67
2023-02-22T22:21:57.488Z,38.10
2023-02-22T22:24:24.367Z,38.72
2023-02-22T22:26:54.922Z,38.30
2023-02-22T22:29:28.986Z,37.78
2023-02-22T22:31:58.214Z,39.53
2023-02-22T22:34:24.779Z,37.17
2023-02-22T22:36:51.414Z,37.25
2023-02-22T22:39:20.989Z,36.45
2023-02-22T22:41:48.265Z,37.53
2023-02-22T22:44:16.382Z,36.50
2023-02-22T22:46:43.901Z,37.38
2023-02-22T22:49:13.701Z,38.35
2023-02-22T22:51:47.475Z,35.35
2023-02-22T22:54:16.837Z,36.15
2023-02-22T22:56:46.502Z,35.17
2023-02-22T22:59:16.222Z,35.03
2023-02-22T23:01:44.759Z,37.45
2023-02-22T23:04:21.621Z,35.90
2023-02-22T23:06:50.769Z,34.40
2023-02-22T23:09:21.721Z,34.42
2023-02-22T23:12:16.766Z,34.67
2023-02-22T23:14:44.948Z,35.15
2023-02-22T23:17:26.906Z,34.75
2023-02-22T23:19:53.557Z,34.83
2023-02-22T23:22:21.290Z,34.50
2023-02-22T23:24:48.014Z,36.80
2023-02-22T23:27:14.959Z,34.53
2023-02-22T23:29:46.721Z,35.10
2023-02-22T23:32:14.325Z,35.58
2023-02-22T23:34:41.681Z,35.67
2023-02-22T23:37:11.116Z,36.35
2023-02-22T23:39:37.869Z,35.75
2023-02-22T23:42:09.649Z,36.58
2023-02-22T23:44:36.447Z,35.80
2023-02-22T23:47:04.095Z,37.10
2023-02-22T23:49:38.334Z,35.03
2023-02-22T23:52:09.435Z,35.80
2023-02-22T23:54:40.334Z,35.63
2023-02-22T23:57:08.882Z,37.28
2023-02-22T23:59:36.136Z,35.72
